Aérodrome :







RETROUVEZ-NOUS SUR...

 
LOGIN :

S'inscrire | Disclaimer

   EN    FR    IT 

 









Légende :    VFR   VFR Marginal   IFR   IFR Intensif   IFR Très Intensif
Visi : 
Plafond : 
>= 8 km
>= 3000ft
5 à 8 km
1000 à 3000 ft
1500m à 5 km
500 à 1000 ft
800 à 1500m
200 à 500 ft
< 800m
< 200 ft
Symboles :   Orages  Brouillard  Fortes neiges  Fortes précipitations  Vent > 20 kt






- Altitude de l'aérodrome : 1188 ft


KCDA - Caledonia County

DERNIER METAR :
  • 172216Z AUTO 28006KT 10SM CLR M19/M24 A3061 RMK AO2 T11891240

METARs EXPIRÉS :
  • 172155Z AUTO 27004KT 10SM CLR M18/M23 A3061 RMK AO2 T11821235
  • 172135Z AUTO 27007KT 10SM CLR M18/M23 A3060 RMK AO2 T11761235
  • 172115Z AUTO 26007KT 10SM CLR M17/M23 A3060 RMK AO2 T11711233
  • 172055Z AUTO 26009G14KT 10SM CLR M17/M23 A3059 RMK AO2 T11671231
  • 172036Z AUTO 25009KT 10SM CLR M16/M23 A3057 RMK AO2 T11651227
  • 172015Z AUTO 28008KT 10SM CLR M16/M23 A3057 RMK AO2 T11621227
  • 171955Z AUTO 27008KT 10SM CLR M16/M23 A3056 RMK AO2 T11601230
  • 171936Z AUTO 26011KT 10SM CLR M16/M23 A3055 RMK AO2 T11581229

TAF N/A



MET'MAP, la Météo Aéronautique d'un coup d'oeil ! - Copyright ORBIFLY Décembre 2007 - Disclaimer

ORBIFLY MET'MAP TEAM :

Programmation & Développement : Alexandra Zaïnal
Sur une idée originale de : Baudouin d'Aumeries
Assistance à la programmation : Marc-Olivier Méhu
Soutien technique & logistique : Manuel Goepfert

Contact : metmap@orbifly.com




SOURCES & CREDITS :

   NOAA